sensor_id;sensor_type;location;lat;lon;timestamp;P1;durP1;ratioP1;P2;durP2;ratioP2
74957;SDS011;63741;42.624;26.276;2022-11-20T00:01:22;15.85;;;6.10;;
74957;SDS011;63741;42.624;26.276;2022-11-20T00:03:53;15.02;;;5.88;;
74957;SDS011;63741;42.624;26.276;2022-11-20T00:06:21;14.82;;;6.20;;
74957;SDS011;63741;42.624;26.276;2022-11-20T00:08:51;16.05;;;5.80;;
74957;SDS011;63741;42.624;26.276;2022-11-20T00:11:21;17.10;;;6.47;;
74957;SDS011;63741;42.624;26.276;2022-11-20T00:13:51;14.95;;;6.30;;
74957;SDS011;63741;42.624;26.276;2022-11-20T00:16:20;17.13;;;7.47;;
74957;SDS011;63741;42.624;26.276;2022-11-20T00:18:49;15.85;;;6.93;;
74957;SDS011;63741;42.624;26.276;2022-11-20T00:21:17;16.27;;;6.45;;
74957;SDS011;63741;42.624;26.276;2022-11-20T00:23:47;12.82;;;5.97;;
74957;SDS011;63741;42.624;26.276;2022-11-20T00:26:16;18.95;;;7.07;;
74957;SDS011;63741;42.624;26.276;2022-11-20T00:28:49;15.82;;;7.32;;
74957;SDS011;63741;42.624;26.276;2022-11-20T00:31:20;17.02;;;8.57;;
74957;SDS011;63741;42.624;26.276;2022-11-20T00:33:47;22.42;;;9.35;;
74957;SDS011;63741;42.624;26.276;2022-11-20T00:36:15;19.80;;;8.15;;
74957;SDS011;63741;42.624;26.276;2022-11-20T00:38:44;14.77;;;7.50;;
74957;SDS011;63741;42.624;26.276;2022-11-20T00:41:13;15.88;;;7.30;;
74957;SDS011;63741;42.624;26.276;2022-11-20T00:43:41;18.13;;;7.55;;
74957;SDS011;63741;42.624;26.276;2022-11-20T00:46:09;13.82;;;7.57;;
74957;SDS011;63741;42.624;26.276;2022-11-20T00:48:40;15.98;;;7.72;;
74957;SDS011;63741;42.624;26.276;2022-11-20T00:51:08;19.55;;;8.50;;
74957;SDS011;63741;42.624;26.276;2022-11-20T00:53:35;19.98;;;8.77;;
74957;SDS011;63741;42.624;26.276;2022-11-20T00:56:03;16.25;;;9.02;;
74957;SDS011;63741;42.624;26.276;2022-11-20T00:58:36;17.95;;;9.02;;
74957;SDS011;63741;42.624;26.276;2022-11-20T01:03:35;19.05;;;7.40;;
74957;SDS011;63741;42.624;26.276;2022-11-20T01:06:11;19.88;;;8.07;;
74957;SDS011;63741;42.624;26.276;2022-11-20T01:08:40;16.50;;;7.88;;
74957;SDS011;63741;42.624;26.276;2022-11-20T01:11:08;25.02;;;11.60;;
74957;SDS011;63741;42.624;26.276;2022-11-20T01:13:37;20.20;;;8.57;;
74957;SDS011;63741;42.624;26.276;2022-11-20T01:18:35;14.98;;;7.25;;
74957;SDS011;63741;42.624;26.276;2022-11-20T01:21:08;12.70;;;7.43;;
74957;SDS011;63741;42.624;26.276;2022-11-20T01:23:37;14.98;;;7.38;;
74957;SDS011;63741;42.624;26.276;2022-11-20T01:26:08;19.63;;;7.70;;
74957;SDS011;63741;42.624;26.276;2022-11-20T01:28:37;20.52;;;8.20;;
74957;SDS011;63741;42.624;26.276;2022-11-20T01:31:26;22.70;;;9.00;;
74957;SDS011;63741;42.624;26.276;2022-11-20T01:33:55;21.17;;;10.68;;
74957;SDS011;63741;42.624;26.276;2022-11-20T01:36:24;20.08;;;9.80;;
74957;SDS011;63741;42.624;26.276;2022-11-20T01:38:53;17.65;;;7.28;;
74957;SDS011;63741;42.624;26.276;2022-11-20T01:41:22;15.73;;;7.18;;
74957;SDS011;63741;42.624;26.276;2022-11-20T01:44:10;15.30;;;6.88;;
74957;SDS011;63741;42.624;26.276;2022-11-20T01:49:33;12.85;;;6.13;;
74957;SDS011;63741;42.624;26.276;2022-11-20T01:52:15;13.88;;;6.10;;
74957;SDS011;63741;42.624;26.276;2022-11-20T01:54:50;15.43;;;6.18;;
74957;SDS011;63741;42.624;26.276;2022-11-20T01:57:36;12.68;;;5.35;;
74957;SDS011;63741;42.624;26.276;2022-11-20T02:00:06;15.93;;;4.85;;
74957;SDS011;63741;42.624;26.276;2022-11-20T02:02:39;12.70;;;5.00;;
74957;SDS011;63741;42.624;26.276;2022-11-20T02:05:14;11.40;;;4.65;;
74957;SDS011;63741;42.624;26.276;2022-11-20T02:07:43;15.02;;;3.47;;
74957;SDS011;63741;42.624;26.276;2022-11-20T02:10:11;13.93;;;3.88;;
74957;SDS011;63741;42.624;26.276;2022-11-20T02:12:38;15.15;;;3.67;;
74957;SDS011;63741;42.624;26.276;2022-11-20T02:15:25;11.30;;;3.38;;
74957;SDS011;63741;42.624;26.276;2022-11-20T02:17:56;14.07;;;3.88;;
74957;SDS011;63741;42.624;26.276;2022-11-20T02:20:23;11.52;;;3.50;;
74957;SDS011;63741;42.624;26.276;2022-11-20T02:23:12;12.65;;;4.05;;
74957;SDS011;63741;42.624;26.276;2022-11-20T02:25:46;14.55;;;3.45;;
74957;SDS011;63741;42.624;26.276;2022-11-20T02:28:13;14.30;;;3.20;;
74957;SDS011;63741;42.624;26.276;2022-11-20T02:30:41;16.10;;;3.90;;
74957;SDS011;63741;42.624;26.276;2022-11-20T02:33:08;12.48;;;3.47;;
74957;SDS011;63741;42.624;26.276;2022-11-20T02:35:39;12.40;;;3.72;;
74957;SDS011;63741;42.624;26.276;2022-11-20T02:38:08;15.50;;;4.68;;
74957;SDS011;63741;42.624;26.276;2022-11-20T02:40:35;12.25;;;3.03;;
74957;SDS011;63741;42.624;26.276;2022-11-20T02:43:02;12.35;;;3.53;;
74957;SDS011;63741;42.624;26.276;2022-11-20T02:45:29;11.90;;;3.67;;
74957;SDS011;63741;42.624;26.276;2022-11-20T02:47:56;9.57;;;3.15;;
74957;SDS011;63741;42.624;26.276;2022-11-20T02:50:23;15.15;;;4.07;;
74957;SDS011;63741;42.624;26.276;2022-11-20T02:52:50;10.48;;;3.47;;
74957;SDS011;63741;42.624;26.276;2022-11-20T02:55:16;12.88;;;3.80;;
74957;SDS011;63741;42.624;26.276;2022-11-20T02:57:43;13.68;;;3.80;;
74957;SDS011;63741;42.624;26.276;2022-11-20T03:00:11;12.18;;;3.60;;
74957;SDS011;63741;42.624;26.276;2022-11-20T03:02:38;10.70;;;3.60;;
74957;SDS011;63741;42.624;26.276;2022-11-20T03:05:05;13.10;;;3.08;;
74957;SDS011;63741;42.624;26.276;2022-11-20T03:07:32;11.82;;;3.20;;
74957;SDS011;63741;42.624;26.276;2022-11-20T03:09:59;16.13;;;3.83;;
74957;SDS011;63741;42.624;26.276;2022-11-20T03:12:26;14.07;;;3.85;;
74957;SDS011;63741;42.624;26.276;2022-11-20T03:14:53;9.07;;;2.83;;
74957;SDS011;63741;42.624;26.276;2022-11-20T03:17:19;14.75;;;3.40;;
74957;SDS011;63741;42.624;26.276;2022-11-20T03:19:46;11.20;;;2.70;;
74957;SDS011;63741;42.624;26.276;2022-11-20T03:22:13;11.18;;;3.00;;
74957;SDS011;63741;42.624;26.276;2022-11-20T03:24:40;12.32;;;3.17;;
74957;SDS011;63741;42.624;26.276;2022-11-20T03:27:07;11.52;;;3.13;;
74957;SDS011;63741;42.624;26.276;2022-11-20T03:29:37;15.20;;;3.15;;
74957;SDS011;63741;42.624;26.276;2022-11-20T03:32:03;13.50;;;3.05;;
74957;SDS011;63741;42.624;26.276;2022-11-20T03:34:31;9.48;;;2.60;;
74957;SDS011;63741;42.624;26.276;2022-11-20T03:36:57;9.77;;;2.60;;
74957;SDS011;63741;42.624;26.276;2022-11-20T03:39:24;11.68;;;2.97;;
74957;SDS011;63741;42.624;26.276;2022-11-20T03:41:52;11.98;;;3.22;;
74957;SDS011;63741;42.624;26.276;2022-11-20T03:44:20;12.20;;;2.67;;
74957;SDS011;63741;42.624;26.276;2022-11-20T03:46:47;11.85;;;2.70;;
74957;SDS011;63741;42.624;26.276;2022-11-20T03:49:14;7.57;;;2.70;;
74957;SDS011;63741;42.624;26.276;2022-11-20T03:51:41;14.05;;;3.30;;
74957;SDS011;63741;42.624;26.276;2022-11-20T03:54:08;12.35;;;3.28;;
74957;SDS011;63741;42.624;26.276;2022-11-20T03:56:36;10.27;;;3.55;;
74957;SDS011;63741;42.624;26.276;2022-11-20T03:59:04;12.40;;;3.67;;
74957;SDS011;63741;42.624;26.276;2022-11-20T04:01:33;12.98;;;5.38;;
74957;SDS011;63741;42.624;26.276;2022-11-20T04:04:02;15.45;;;4.70;;
74957;SDS011;63741;42.624;26.276;2022-11-20T04:06:30;15.38;;;5.20;;
74957;SDS011;63741;42.624;26.276;2022-11-20T04:09:02;11.35;;;4.18;;
74957;SDS011;63741;42.624;26.276;2022-11-20T04:11:30;18.23;;;3.65;;
74957;SDS011;63741;42.624;26.276;2022-11-20T04:14:03;15.70;;;3.60;;
74957;SDS011;63741;42.624;26.276;2022-11-20T04:16:32;10.90;;;3.15;;
74957;SDS011;63741;42.624;26.276;2022-11-20T04:19:03;13.18;;;3.60;;
74957;SDS011;63741;42.624;26.276;2022-11-20T04:21:31;13.60;;;2.70;;
74957;SDS011;63741;42.624;26.276;2022-11-20T04:23:59;13.05;;;2.80;;
74957;SDS011;63741;42.624;26.276;2022-11-20T04:26:26;12.10;;;2.88;;
74957;SDS011;63741;42.624;26.276;2022-11-20T04:28:54;8.70;;;2.75;;
74957;SDS011;63741;42.624;26.276;2022-11-20T04:31:25;19.20;;;7.55;;
74957;SDS011;63741;42.624;26.276;2022-11-20T04:33:55;18.42;;;8.20;;
74957;SDS011;63741;42.624;26.276;2022-11-20T04:36:25;13.73;;;6.88;;
74957;SDS011;63741;42.624;26.276;2022-11-20T04:38:54;13.73;;;4.78;;
74957;SDS011;63741;42.624;26.276;2022-11-20T04:41:24;14.68;;;3.67;;
74957;SDS011;63741;42.624;26.276;2022-11-20T04:43:56;9.68;;;3.30;;
74957;SDS011;63741;42.624;26.276;2022-11-20T04:46:41;12.52;;;3.45;;
74957;SDS011;63741;42.624;26.276;2022-11-20T04:49:10;12.40;;;3.30;;
74957;SDS011;63741;42.624;26.276;2022-11-20T04:51:37;10.65;;;2.92;;
74957;SDS011;63741;42.624;26.276;2022-11-20T04:54:04;14.05;;;3.30;;
74957;SDS011;63741;42.624;26.276;2022-11-20T04:56:31;10.63;;;3.15;;
74957;SDS011;63741;42.624;26.276;2022-11-20T04:59:01;13.80;;;3.30;;
74957;SDS011;63741;42.624;26.276;2022-11-20T05:01:29;9.68;;;2.70;;
74957;SDS011;63741;42.624;26.276;2022-11-20T05:03:56;11.00;;;3.53;;
74957;SDS011;63741;42.624;26.276;2022-11-20T05:06:23;12.13;;;3.40;;
74957;SDS011;63741;42.624;26.276;2022-11-20T05:08:50;11.93;;;3.17;;
74957;SDS011;63741;42.624;26.276;2022-11-20T05:11:18;14.23;;;2.75;;
74957;SDS011;63741;42.624;26.276;2022-11-20T05:13:47;9.52;;;2.80;;
74957;SDS011;63741;42.624;26.276;2022-11-20T05:16:19;15.13;;;3.83;;
74957;SDS011;63741;42.624;26.276;2022-11-20T05:18:50;12.07;;;4.68;;
74957;SDS011;63741;42.624;26.276;2022-11-20T05:21:18;15.65;;;4.53;;
74957;SDS011;63741;42.624;26.276;2022-11-20T05:23:45;10.98;;;3.33;;
74957;SDS011;63741;42.624;26.276;2022-11-20T05:26:20;10.52;;;2.95;;
74957;SDS011;63741;42.624;26.276;2022-11-20T05:28:48;10.05;;;2.75;;
74957;SDS011;63741;42.624;26.276;2022-11-20T05:31:19;72.13;;;45.63;;
74957;SDS011;63741;42.624;26.276;2022-11-20T05:33:53;158.60;;;87.97;;
74957;SDS011;63741;42.624;26.276;2022-11-20T05:36:21;25.88;;;9.80;;
74957;SDS011;63741;42.624;26.276;2022-11-20T05:38:49;43.83;;;25.75;;
74957;SDS011;63741;42.624;26.276;2022-11-20T05:41:18;14.15;;;6.03;;
74957;SDS011;63741;42.624;26.276;2022-11-20T05:43:46;11.77;;;3.58;;
74957;SDS011;63741;42.624;26.276;2022-11-20T05:46:15;14.63;;;3.80;;
74957;SDS011;63741;42.624;26.276;2022-11-20T05:48:47;12.57;;;4.60;;
74957;SDS011;63741;42.624;26.276;2022-11-20T05:51:15;12.35;;;2.67;;
74957;SDS011;63741;42.624;26.276;2022-11-20T05:53:44;12.77;;;2.75;;
74957;SDS011;63741;42.624;26.276;2022-11-20T05:56:18;11.90;;;3.20;;
74957;SDS011;63741;42.624;26.276;2022-11-20T05:58:46;11.90;;;3.35;;
74957;SDS011;63741;42.624;26.276;2022-11-20T06:01:18;11.60;;;2.90;;
74957;SDS011;63741;42.624;26.276;2022-11-20T06:03:47;9.30;;;2.60;;
74957;SDS011;63741;42.624;26.276;2022-11-20T06:06:14;15.30;;;3.50;;
74957;SDS011;63741;42.624;26.276;2022-11-20T06:08:42;10.18;;;3.35;;
74957;SDS011;63741;42.624;26.276;2022-11-20T06:11:11;14.43;;;3.83;;
74957;SDS011;63741;42.624;26.276;2022-11-20T06:13:39;13.35;;;3.35;;
74957;SDS011;63741;42.624;26.276;2022-11-20T06:16:08;12.40;;;5.72;;
74957;SDS011;63741;42.624;26.276;2022-11-20T06:18:36;15.38;;;6.30;;
74957;SDS011;63741;42.624;26.276;2022-11-20T06:23:35;14.98;;;3.60;;
74957;SDS011;63741;42.624;26.276;2022-11-20T06:26:10;8.48;;;3.25;;
74957;SDS011;63741;42.624;26.276;2022-11-20T06:28:38;15.73;;;4.65;;
74957;SDS011;63741;42.624;26.276;2022-11-20T06:31:06;14.55;;;5.82;;
74957;SDS011;63741;42.624;26.276;2022-11-20T06:33:33;21.05;;;8.93;;
74957;SDS011;63741;42.624;26.276;2022-11-20T06:36:00;15.82;;;7.50;;
74957;SDS011;63741;42.624;26.276;2022-11-20T06:38:35;16.83;;;6.53;;
74957;SDS011;63741;42.624;26.276;2022-11-20T06:41:06;14.93;;;6.00;;
74957;SDS011;63741;42.624;26.276;2022-11-20T06:43:37;21.08;;;5.43;;
74957;SDS011;63741;42.624;26.276;2022-11-20T06:46:04;13.50;;;3.20;;
74957;SDS011;63741;42.624;26.276;2022-11-20T06:48:31;9.07;;;2.45;;
74957;SDS011;63741;42.624;26.276;2022-11-20T06:50:59;17.35;;;4.03;;
74957;SDS011;63741;42.624;26.276;2022-11-20T06:53:26;15.18;;;2.95;;
74957;SDS011;63741;42.624;26.276;2022-11-20T06:55:55;12.70;;;3.35;;
74957;SDS011;63741;42.624;26.276;2022-11-20T06:58:23;8.63;;;2.40;;
74957;SDS011;63741;42.624;26.276;2022-11-20T07:00:52;14.75;;;3.00;;
74957;SDS011;63741;42.624;26.276;2022-11-20T07:03:19;15.30;;;3.13;;
74957;SDS011;63741;42.624;26.276;2022-11-20T07:05:46;16.98;;;5.00;;
74957;SDS011;63741;42.624;26.276;2022-11-20T07:08:13;14.57;;;3.65;;
74957;SDS011;63741;42.624;26.276;2022-11-20T07:10:40;13.25;;;2.80;;
74957;SDS011;63741;42.624;26.276;2022-11-20T07:13:07;14.93;;;3.83;;
74957;SDS011;63741;42.624;26.276;2022-11-20T07:15:33;10.80;;;3.58;;
74957;SDS011;63741;42.624;26.276;2022-11-20T07:18:01;12.80;;;3.97;;
74957;SDS011;63741;42.624;26.276;2022-11-20T07:20:28;14.32;;;3.92;;
74957;SDS011;63741;42.624;26.276;2022-11-20T07:22:56;13.48;;;4.10;;
74957;SDS011;63741;42.624;26.276;2022-11-20T07:25:27;18.00;;;5.05;;
74957;SDS011;63741;42.624;26.276;2022-11-20T07:27:58;29.92;;;6.28;;
74957;SDS011;63741;42.624;26.276;2022-11-20T07:30:26;24.17;;;6.82;;
74957;SDS011;63741;42.624;26.276;2022-11-20T07:32:54;15.43;;;4.63;;
74957;SDS011;63741;42.624;26.276;2022-11-20T07:35:23;17.98;;;4.93;;
74957;SDS011;63741;42.624;26.276;2022-11-20T07:37:51;19.75;;;4.15;;
74957;SDS011;63741;42.624;26.276;2022-11-20T07:40:18;12.70;;;4.10;;
74957;SDS011;63741;42.624;26.276;2022-11-20T07:42:53;17.25;;;3.63;;
74957;SDS011;63741;42.624;26.276;2022-11-20T07:45:22;13.00;;;4.88;;
74957;SDS011;63741;42.624;26.276;2022-11-20T07:47:50;23.85;;;7.90;;
74957;SDS011;63741;42.624;26.276;2022-11-20T07:50:17;28.55;;;11.60;;
74957;SDS011;63741;42.624;26.276;2022-11-20T07:52:46;17.98;;;5.63;;
74957;SDS011;63741;42.624;26.276;2022-11-20T07:55:13;41.15;;;18.50;;
74957;SDS011;63741;42.624;26.276;2022-11-20T07:57:40;33.00;;;12.52;;
74957;SDS011;63741;42.624;26.276;2022-11-20T08:00:07;26.42;;;11.30;;
74957;SDS011;63741;42.624;26.276;2022-11-20T08:05:07;29.65;;;13.00;;
74957;SDS011;63741;42.624;26.276;2022-11-20T08:07:36;21.08;;;8.52;;
74957;SDS011;63741;42.624;26.276;2022-11-20T08:10:08;21.58;;;6.45;;
74957;SDS011;63741;42.624;26.276;2022-11-20T08:12:42;36.85;;;18.73;;
74957;SDS011;63741;42.624;26.276;2022-11-20T08:15:29;27.23;;;13.98;;
74957;SDS011;63741;42.624;26.276;2022-11-20T08:18:00;28.85;;;14.88;;
74957;SDS011;63741;42.624;26.276;2022-11-20T08:20:48;16.75;;;4.63;;
74957;SDS011;63741;42.624;26.276;2022-11-20T08:23:15;14.90;;;4.45;;
74957;SDS011;63741;42.624;26.276;2022-11-20T08:25:42;22.33;;;6.78;;
74957;SDS011;63741;42.624;26.276;2022-11-20T08:28:09;19.42;;;5.90;;
74957;SDS011;63741;42.624;26.276;2022-11-20T08:30:46;25.58;;;10.95;;
74957;SDS011;63741;42.624;26.276;2022-11-20T08:33:13;22.35;;;9.75;;
74957;SDS011;63741;42.624;26.276;2022-11-20T08:35:40;20.52;;;7.97;;
74957;SDS011;63741;42.624;26.276;2022-11-20T08:38:09;16.85;;;5.68;;
74957;SDS011;63741;42.624;26.276;2022-11-20T08:40:36;17.42;;;6.43;;
74957;SDS011;63741;42.624;26.276;2022-11-20T08:43:02;16.85;;;5.18;;
74957;SDS011;63741;42.624;26.276;2022-11-20T08:45:29;16.63;;;3.20;;
74957;SDS011;63741;42.624;26.276;2022-11-20T08:48:03;14.15;;;2.90;;
74957;SDS011;63741;42.624;26.276;2022-11-20T08:50:31;12.48;;;2.60;;
74957;SDS011;63741;42.624;26.276;2022-11-20T08:53:03;12.63;;;3.10;;
74957;SDS011;63741;42.624;26.276;2022-11-20T08:55:31;16.98;;;3.00;;
74957;SDS011;63741;42.624;26.276;2022-11-20T08:57:58;10.07;;;2.53;;
74957;SDS011;63741;42.624;26.276;2022-11-20T09:00:25;13.20;;;2.63;;
74957;SDS011;63741;42.624;26.276;2022-11-20T09:02:52;16.35;;;4.32;;
74957;SDS011;63741;42.624;26.276;2022-11-20T09:05:19;18.98;;;4.90;;
74957;SDS011;63741;42.624;26.276;2022-11-20T09:07:46;18.95;;;5.40;;
74957;SDS011;63741;42.624;26.276;2022-11-20T09:10:13;21.77;;;7.25;;
74957;SDS011;63741;42.624;26.276;2022-11-20T09:12:49;27.80;;;11.32;;
74957;SDS011;63741;42.624;26.276;2022-11-20T09:15:18;23.08;;;6.35;;
74957;SDS011;63741;42.624;26.276;2022-11-20T09:17:56;19.80;;;5.15;;
74957;SDS011;63741;42.624;26.276;2022-11-20T09:20:25;15.48;;;5.43;;
74957;SDS011;63741;42.624;26.276;2022-11-20T09:22:55;16.00;;;3.90;;
74957;SDS011;63741;42.624;26.276;2022-11-20T09:25:22;15.02;;;4.05;;
74957;SDS011;63741;42.624;26.276;2022-11-20T09:27:59;17.77;;;4.15;;
74957;SDS011;63741;42.624;26.276;2022-11-20T09:30:26;14.10;;;4.20;;
74957;SDS011;63741;42.624;26.276;2022-11-20T09:32:53;14.25;;;3.72;;
74957;SDS011;63741;42.624;26.276;2022-11-20T09:35:20;14.07;;;5.28;;
74957;SDS011;63741;42.624;26.276;2022-11-20T09:37:48;16.63;;;2.72;;
74957;SDS011;63741;42.624;26.276;2022-11-20T09:40:25;14.10;;;3.00;;
74957;SDS011;63741;42.624;26.276;2022-11-20T09:51:08;15.18;;;2.65;;
74957;SDS011;63741;42.624;26.276;2022-11-20T09:56:27;10.43;;;2.47;;
74957;SDS011;63741;42.624;26.276;2022-11-20T09:58:55;25.63;;;6.70;;
74957;SDS011;63741;42.624;26.276;2022-11-20T10:01:26;19.95;;;3.78;;
74957;SDS011;63741;42.624;26.276;2022-11-20T10:04:00;17.10;;;2.90;;
74957;SDS011;63741;42.624;26.276;2022-11-20T10:06:32;10.15;;;2.30;;
74957;SDS011;63741;42.624;26.276;2022-11-20T10:09:27;16.90;;;3.10;;
74957;SDS011;63741;42.624;26.276;2022-11-20T10:25:46;21.50;;;4.10;;
74957;SDS011;63741;42.624;26.276;2022-11-20T10:31:08;13.38;;;2.95;;
74957;SDS011;63741;42.624;26.276;2022-11-20T10:33:41;18.88;;;3.72;;
74957;SDS011;63741;42.624;26.276;2022-11-20T10:36:36;20.05;;;3.80;;
74957;SDS011;63741;42.624;26.276;2022-11-20T10:39:30;19.70;;;3.78;;
74957;SDS011;63741;42.624;26.276;2022-11-20T10:41:59;20.30;;;3.25;;
74957;SDS011;63741;42.624;26.276;2022-11-20T10:44:28;20.67;;;3.72;;
74957;SDS011;63741;42.624;26.276;2022-11-20T10:47:22;14.85;;;2.88;;
74957;SDS011;63741;42.624;26.276;2022-11-20T10:49:51;18.23;;;3.15;;
74957;SDS011;63741;42.624;26.276;2022-11-20T10:52:32;18.90;;;3.13;;
74957;SDS011;63741;42.624;26.276;2022-11-20T10:58:38;21.65;;;3.50;;
74957;SDS011;63741;42.624;26.276;2022-11-20T11:03:45;17.30;;;3.72;;
74957;SDS011;63741;42.624;26.276;2022-11-20T11:06:16;25.63;;;3.40;;
74957;SDS011;63741;42.624;26.276;2022-11-20T11:08:56;18.13;;;3.42;;
74957;SDS011;63741;42.624;26.276;2022-11-20T11:11:28;29.25;;;4.47;;
74957;SDS011;63741;42.624;26.276;2022-11-20T11:14:10;25.52;;;3.80;;
74957;SDS011;63741;42.624;26.276;2022-11-20T11:16:50;26.75;;;3.70;;
74957;SDS011;63741;42.624;26.276;2022-11-20T11:19:18;21.45;;;3.53;;
74957;SDS011;63741;42.624;26.276;2022-11-20T11:21:55;24.00;;;3.70;;
74957;SDS011;63741;42.624;26.276;2022-11-20T11:24:24;22.08;;;3.90;;
74957;SDS011;63741;42.624;26.276;2022-11-20T11:27:11;22.20;;;3.33;;
74957;SDS011;63741;42.624;26.276;2022-11-20T11:29:43;29.42;;;3.95;;
74957;SDS011;63741;42.624;26.276;2022-11-20T11:32:15;18.58;;;3.63;;
74957;SDS011;63741;42.624;26.276;2022-11-20T11:35:01;26.67;;;3.92;;
74957;SDS011;63741;42.624;26.276;2022-11-20T11:37:35;25.67;;;4.60;;
74957;SDS011;63741;42.624;26.276;2022-11-20T11:40:04;16.23;;;3.88;;
74957;SDS011;63741;42.624;26.276;2022-11-20T11:43:16;29.02;;;3.92;;
74957;SDS011;63741;42.624;26.276;2022-11-20T11:46:25;30.85;;;4.07;;
74957;SDS011;63741;42.624;26.276;2022-11-20T11:49:11;31.52;;;4.53;;
74957;SDS011;63741;42.624;26.276;2022-11-20T11:54:42;23.88;;;3.92;;
74957;SDS011;63741;42.624;26.276;2022-11-20T12:00:09;22.40;;;3.58;;
74957;SDS011;63741;42.624;26.276;2022-11-20T12:02:47;30.23;;;3.90;;
74957;SDS011;63741;42.624;26.276;2022-11-20T12:05:38;21.75;;;4.03;;
74957;SDS011;63741;42.624;26.276;2022-11-20T12:16:01;26.92;;;4.60;;
74957;SDS011;63741;42.624;26.276;2022-11-20T12:18:30;24.05;;;4.20;;
74957;SDS011;63741;42.624;26.276;2022-11-20T12:21:07;19.65;;;3.53;;
74957;SDS011;63741;42.624;26.276;2022-11-20T12:27:10;27.65;;;4.32;;
74957;SDS011;63741;42.624;26.276;2022-11-20T12:41:40;29.58;;;4.43;;
74957;SDS011;63741;42.624;26.276;2022-11-20T13:01:18;37.92;;;6.78;;
74957;SDS011;63741;42.624;26.276;2022-11-20T13:04:32;27.55;;;7.07;;
74957;SDS011;63741;42.624;26.276;2022-11-20T13:07:12;28.20;;;4.93;;
74957;SDS011;63741;42.624;26.276;2022-11-20T13:09:43;24.75;;;4.90;;
74957;SDS011;63741;42.624;26.276;2022-11-20T13:15:05;29.52;;;4.93;;
74957;SDS011;63741;42.624;26.276;2022-11-20T13:17:43;29.10;;;4.45;;
74957;SDS011;63741;42.624;26.276;2022-11-20T13:20:18;23.15;;;4.20;;
74957;SDS011;63741;42.624;26.276;2022-11-20T13:22:49;29.52;;;4.13;;
74957;SDS011;63741;42.624;26.276;2022-11-20T13:25:25;30.27;;;4.47;;
74957;SDS011;63741;42.624;26.276;2022-11-20T13:27:54;31.73;;;4.47;;
74957;SDS011;63741;42.624;26.276;2022-11-20T13:30:26;31.70;;;4.57;;
74957;SDS011;63741;42.624;26.276;2022-11-20T13:32:58;28.83;;;4.97;;
74957;SDS011;63741;42.624;26.276;2022-11-20T13:35:34;31.33;;;4.40;;
74957;SDS011;63741;42.624;26.276;2022-11-20T13:38:13;33.97;;;5.38;;
74957;SDS011;63741;42.624;26.276;2022-11-20T13:40:51;38.42;;;5.75;;
74957;SDS011;63741;42.624;26.276;2022-11-20T13:43:47;29.30;;;4.55;;
74957;SDS011;63741;42.624;26.276;2022-11-20T13:46:14;29.10;;;4.53;;
74957;SDS011;63741;42.624;26.276;2022-11-20T13:48:45;34.92;;;4.40;;
74957;SDS011;63741;42.624;26.276;2022-11-20T14:02:36;28.73;;;4.82;;
74957;SDS011;63741;42.624;26.276;2022-11-20T14:05:03;39.03;;;4.88;;
74957;SDS011;63741;42.624;26.276;2022-11-20T14:07:37;33.90;;;4.75;;
74957;SDS011;63741;42.624;26.276;2022-11-20T14:10:21;35.95;;;4.63;;
74957;SDS011;63741;42.624;26.276;2022-11-20T14:12:56;30.13;;;4.07;;
74957;SDS011;63741;42.624;26.276;2022-11-20T14:15:28;45.13;;;5.47;;
74957;SDS011;63741;42.624;26.276;2022-11-20T14:17:57;35.58;;;5.30;;
74957;SDS011;63741;42.624;26.276;2022-11-20T14:20:26;30.05;;;5.20;;
74957;SDS011;63741;42.624;26.276;2022-11-20T14:22:55;28.70;;;4.40;;
74957;SDS011;63741;42.624;26.276;2022-11-20T14:25:23;34.65;;;5.32;;
74957;SDS011;63741;42.624;26.276;2022-11-20T14:27:54;29.25;;;4.60;;
74957;SDS011;63741;42.624;26.276;2022-11-20T14:32:54;34.67;;;5.68;;
74957;SDS011;63741;42.624;26.276;2022-11-20T14:35:25;39.25;;;7.45;;
74957;SDS011;63741;42.624;26.276;2022-11-20T14:37:54;38.55;;;5.15;;
74957;SDS011;63741;42.624;26.276;2022-11-20T14:40:23;37.42;;;6.50;;
74957;SDS011;63741;42.624;26.276;2022-11-20T14:42:51;32.47;;;6.28;;
74957;SDS011;63741;42.624;26.276;2022-11-20T14:45:18;32.83;;;7.78;;
74957;SDS011;63741;42.624;26.276;2022-11-20T14:47:45;37.15;;;8.32;;
74957;SDS011;63741;42.624;26.276;2022-11-20T14:50:15;33.85;;;6.22;;
74957;SDS011;63741;42.624;26.276;2022-11-20T14:52:52;39.20;;;7.20;;
74957;SDS011;63741;42.624;26.276;2022-11-20T14:58:02;48.03;;;17.90;;
74957;SDS011;63741;42.624;26.276;2022-11-20T15:01:05;43.55;;;10.30;;
74957;SDS011;63741;42.624;26.276;2022-11-20T15:03:34;44.88;;;14.10;;
74957;SDS011;63741;42.624;26.276;2022-11-20T15:06:03;51.03;;;14.60;;
74957;SDS011;63741;42.624;26.276;2022-11-20T15:08:31;45.40;;;13.70;;
74957;SDS011;63741;42.624;26.276;2022-11-20T15:10:58;54.03;;;18.98;;
74957;SDS011;63741;42.624;26.276;2022-11-20T15:13:32;63.33;;;19.13;;
74957;SDS011;63741;42.624;26.276;2022-11-20T15:16:01;47.95;;;13.98;;
74957;SDS011;63741;42.624;26.276;2022-11-20T15:18:31;59.28;;;15.98;;
74957;SDS011;63741;42.624;26.276;2022-11-20T15:21:03;40.10;;;9.32;;
74957;SDS011;63741;42.624;26.276;2022-11-20T15:23:36;38.78;;;8.73;;
74957;SDS011;63741;42.624;26.276;2022-11-20T15:26:10;42.22;;;9.40;;
74957;SDS011;63741;42.624;26.276;2022-11-20T15:28:46;30.33;;;8.90;;
74957;SDS011;63741;42.624;26.276;2022-11-20T15:31:15;34.40;;;7.40;;
74957;SDS011;63741;42.624;26.276;2022-11-20T15:33:43;38.78;;;7.93;;
74957;SDS011;63741;42.624;26.276;2022-11-20T15:36:11;32.30;;;5.50;;
74957;SDS011;63741;42.624;26.276;2022-11-20T15:38:38;37.65;;;7.57;;
74957;SDS011;63741;42.624;26.276;2022-11-20T15:41:05;37.55;;;9.45;;
74957;SDS011;63741;42.624;26.276;2022-11-20T15:43:33;49.25;;;12.07;;
74957;SDS011;63741;42.624;26.276;2022-11-20T15:46:02;37.28;;;7.38;;
74957;SDS011;63741;42.624;26.276;2022-11-20T15:48:44;37.38;;;6.47;;
74957;SDS011;63741;42.624;26.276;2022-11-20T15:51:22;35.35;;;5.70;;
74957;SDS011;63741;42.624;26.276;2022-11-20T15:53:51;38.22;;;8.18;;
74957;SDS011;63741;42.624;26.276;2022-11-20T15:56:17;38.13;;;7.78;;
74957;SDS011;63741;42.624;26.276;2022-11-20T15:58:44;40.40;;;6.00;;
74957;SDS011;63741;42.624;26.276;2022-11-20T16:01:12;39.72;;;6.55;;
74957;SDS011;63741;42.624;26.276;2022-11-20T16:03:41;36.75;;;6.15;;
74957;SDS011;63741;42.624;26.276;2022-11-20T16:06:08;38.13;;;5.25;;
74957;SDS011;63741;42.624;26.276;2022-11-20T16:08:35;50.65;;;6.28;;
74957;SDS011;63741;42.624;26.276;2022-11-20T16:11:02;35.05;;;5.47;;
74957;SDS011;63741;42.624;26.276;2022-11-20T16:13:30;43.55;;;5.70;;
74957;SDS011;63741;42.624;26.276;2022-11-20T16:16:25;37.88;;;6.53;;
74957;SDS011;63741;42.624;26.276;2022-11-20T16:18:56;46.08;;;6.38;;
74957;SDS011;63741;42.624;26.276;2022-11-20T16:21:24;43.15;;;5.38;;
74957;SDS011;63741;42.624;26.276;2022-11-20T16:24:01;42.67;;;6.30;;
74957;SDS011;63741;42.624;26.276;2022-11-20T16:26:31;37.42;;;5.63;;
74957;SDS011;63741;42.624;26.276;2022-11-20T16:28:59;39.95;;;6.28;;
74957;SDS011;63741;42.624;26.276;2022-11-20T16:31:27;40.35;;;6.60;;
74957;SDS011;63741;42.624;26.276;2022-11-20T16:33:55;41.50;;;6.35;;
74957;SDS011;63741;42.624;26.276;2022-11-20T16:36:23;28.63;;;4.85;;